Time;durP1;ratioP1;P1;durP2;ratioP2;P2;SDS_P1;SDS_P2;PMS_P1;PMS_P2;Temp;Humidity;BMP_temperature;BMP_pressure;BME280_temperature;BME280_humidity;BME280_pressure;Samples;Min_cycle;Max_cycle;Signal;HPM_P1;HPM_P2
2023/01/19 00:00:21;;;;;;;11.38;10.30;;;4.80;99.90;;;;;;5035260;28;93185;-72
2023/01/19 00:02:49;;;;;;;13.85;10.32;;;4.80;99.90;;;;;;5034965;28;93058;-72
2023/01/19 00:05:16;;;;;;;11.38;8.80;;;4.80;99.90;;;;;;5034132;28;94754;-72
2023/01/19 00:07:43;;;;;;;9.45;8.52;;;4.80;99.90;;;;;;5017489;28;92526;-72
2023/01/19 00:10:10;;;;;;;9.43;8.48;;;4.80;99.90;;;;;;5034709;28;93399;-73
2023/01/19 00:12:37;;;;;;;11.15;9.30;;;4.70;99.90;;;;;;5034233;28;93011;-72
2023/01/19 00:15:05;;;;;;;10.82;8.90;;;4.80;99.90;;;;;;5034563;28;92480;-72
2023/01/19 00:17:32;;;;;;;11.30;8.65;;;4.80;99.90;;;;;;5034412;28;92953;-72
2023/01/19 00:19:58;;;;;;;9.38;8.48;;;4.80;99.90;;;;;;5034554;28;93575;-72
2023/01/19 00:22:25;;;;;;;11.90;9.70;;;4.80;99.90;;;;;;5034624;28;93361;-72
2023/01/19 00:24:52;;;;;;;10.60;8.60;;;4.80;99.90;;;;;;5035883;28;92469;-72
2023/01/19 00:27:19;;;;;;;9.30;8.38;;;4.80;99.90;;;;;;5034383;28;93159;-73
2023/01/19 00:29:46;;;;;;;8.60;7.53;;;4.80;99.90;;;;;;5033981;28;95655;-72
2023/01/19 00:32:13;;;;;;;9.20;8.13;;;4.80;99.90;;;;;;5033919;28;104279;-73
2023/01/19 00:34:41;;;;;;;7.80;7.00;;;4.80;99.90;;;;;;5035050;28;92492;-72
2023/01/19 00:37:08;;;;;;;12.73;8.48;;;4.80;99.90;;;;;;5034469;28;93546;-72
2023/01/19 00:39:36;;;;;;;9.07;8.10;;;4.70;99.90;;;;;;5033902;28;93361;-73
2023/01/19 00:42:47;;;;;;;11.25;8.30;;;4.70;99.90;;;;;;5034045;28;93213;-72
2023/01/19 00:44:52;;;;;;;9.00;8.10;;;4.70;99.90;;;;;;5023927;28;92693;-73
2023/01/19 00:47:19;;;;;;;10.10;7.80;;;4.70;99.90;;;;;;5034783;28;91742;-73
2023/01/19 00:50:01;;;;;;;8.68;7.78;;;4.70;99.90;;;;;;5034912;28;92366;-73
2023/01/19 00:52:46;;;;;;;8.23;6.63;;;4.80;99.90;;;;;;5033392;28;93322;-72
2023/01/19 00:55:14;;;;;;;7.20;6.35;;;4.80;99.90;;;;;;5034243;28;94860;-73
2023/01/19 00:57:42;;;;;;;6.60;5.97;;;4.80;99.90;;;;;;5016905;28;92395;-72
2023/01/19 01:00:13;;;;;;;6.65;5.85;;;4.80;99.90;;;;;;5017034;28;95988;-72
2023/01/19 01:02:41;;;;;;;5.78;5.28;;;4.80;99.90;;;;;;5036412;28;95712;-73
2023/01/19 01:05:10;;;;;;;5.82;5.10;;;4.80;99.90;;;;;;5020736;28;92493;-72
2023/01/19 01:07:39;;;;;;;6.85;5.30;;;4.80;99.90;;;;;;5037052;28;93271;-73
2023/01/19 01:10:12;;;;;;;5.25;4.70;;;4.70;99.90;;;;;;5037131;28;95767;-72
2023/01/19 01:12:40;;;;;;;7.90;5.20;;;4.80;99.90;;;;;;5038912;27;92768;-72
2023/01/19 01:15:09;;;;;;;5.57;4.60;;;4.80;99.90;;;;;;5020856;28;93164;-73
2023/01/19 01:17:36;;;;;;;5.18;4.70;;;4.80;99.90;;;;;;5037370;28;93260;-71
2023/01/19 01:20:04;;;;;;;2.80;2.60;;;4.80;99.90;;;;;;5036007;28;95700;-73
2023/01/19 01:22:30;;;;;;;4.75;4.35;;;4.80;99.90;;;;;;5037005;28;95676;-72
2023/01/19 01:24:57;;;;;;;4.38;3.70;;;4.70;99.90;;;;;;5038361;28;92926;-72
2023/01/19 01:27:24;;;;;;;4.50;4.13;;;4.70;99.90;;;;;;5020389;28;92544;-72
2023/01/19 01:29:51;;;;;;;2.60;2.42;;;4.70;99.90;;;;;;5037007;28;93332;-72
2023/01/19 01:32:18;;;;;;;3.33;3.03;;;4.70;99.90;;;;;;5003727;28;96536;-72
2023/01/19 01:34:45;;;;;;;3.35;3.08;;;4.70;99.90;;;;;;5036683;28;92807;-72
2023/01/19 01:37:12;;;;;;;2.85;2.65;;;4.60;99.90;;;;;;5020542;28;91773;-72
2023/01/19 01:39:39;;;;;;;3.42;3.17;;;4.60;99.90;;;;;;5038081;28;93342;-72
2023/01/19 01:42:16;;;;;;;3.80;3.50;;;4.60;99.90;;;;;;5036878;28;93047;-72
2023/01/19 01:44:53;;;;;;;4.43;3.90;;;4.60;99.90;;;;;;5035907;28;94862;-72
2023/01/19 01:47:26;;;;;;;3.60;3.30;;;4.60;99.90;;;;;;5036857;28;92491;-72
2023/01/19 01:50:13;;;;;;;4.53;4.13;;;4.60;99.90;;;;;;5036534;28;94772;-72
2023/01/19 01:53:09;;;;;;;5.75;4.30;;;4.50;99.90;;;;;;5037890;27;92451;-72
2023/01/19 01:55:40;;;;;;;5.43;4.93;;;4.50;99.90;;;;;;5033826;28;92477;-72
2023/01/19 01:58:10;;;;;;;5.88;5.30;;;4.50;99.90;;;;;;5036760;28;92601;-72
2023/01/19 02:03:25;;;;;;;7.20;6.35;;;4.50;99.90;;;;;;5038103;28;92786;-72
2023/01/19 02:05:56;;;;;;;7.13;6.45;;;4.50;99.90;;;;;;5036215;28;92546;-72
2023/01/19 02:14:14;;;;;;;8.35;7.65;;;4.40;99.90;;;;;;5037598;28;95468;-72
2023/01/19 02:16:41;;;;;;;8.80;8.00;;;4.40;99.90;;;;;;5019902;28;92574;-72
2023/01/19 02:19:15;;;;;;;9.27;8.38;;;4.40;99.90;;;;;;4986694;28;92509;-72
2023/01/19 02:21:57;;;;;;;8.23;7.53;;;4.40;99.90;;;;;;5037515;28;92488;-72
2023/01/19 02:24:28;;;;;;;9.50;8.60;;;4.40;99.90;;;;;;5037697;28;93306;-72
2023/01/19 02:26:55;;;;;;;8.55;7.75;;;4.40;99.90;;;;;;5035929;28;92500;-72
2023/01/19 02:29:24;;;;;;;9.98;8.30;;;4.40;99.90;;;;;;5036637;28;92533;-72
2023/01/19 02:31:53;;;;;;;8.07;7.28;;;4.40;99.90;;;;;;5035618;28;96044;-72
2023/01/19 02:34:21;;;;;;;9.05;8.25;;;4.40;99.90;;;;;;5035570;28;95544;-73
2023/01/19 02:37:02;;;;;;;10.73;8.93;;;4.50;99.90;;;;;;5036185;28;94742;-72
2023/01/19 02:39:41;;;;;;;10.05;9.05;;;4.50;99.90;;;;;;5037426;28;92493;-72
2023/01/19 02:42:13;;;;;;;10.93;9.45;;;4.50;99.90;;;;;;5035872;28;93254;-72
2023/01/19 02:44:44;;;;;;;10.73;9.63;;;4.40;99.90;;;;;;5037142;28;93016;-72
2023/01/19 02:47:12;;;;;;;10.98;9.88;;;4.40;99.90;;;;;;5019052;28;92581;-72
2023/01/19 02:49:39;;;;;;;12.40;9.70;;;4.40;99.90;;;;;;5018695;28;97990;-72
2023/01/19 02:52:14;;;;;;;11.57;10.40;;;4.50;99.90;;;;;;5036743;28;93359;-72
2023/01/19 02:55:04;;;;;;;10.68;9.57;;;4.50;99.90;;;;;;5035510;28;95706;-72
2023/01/19 02:57:38;;;;;;;9.60;8.40;;;4.50;99.90;;;;;;5035738;28;92443;-72
2023/01/19 03:00:55;;;;;;;11.57;10.10;;;4.50;99.90;;;;;;5035843;28;92405;-72
2023/01/19 03:03:31;;;;;;;11.77;10.57;;;4.50;99.90;;;;;;5000119;28;95688;-72
2023/01/19 03:06:01;;;;;;;12.05;10.85;;;4.40;99.90;;;;;;5036092;28;95520;-72
2023/01/19 03:08:49;;;;;;;12.23;10.85;;;4.50;99.90;;;;;;5035371;28;92504;-72
2023/01/19 03:11:16;;;;;;;11.75;10.63;;;4.50;99.90;;;;;;5035058;28;92818;-72
2023/01/19 03:13:54;;;;;;;11.88;10.38;;;4.50;99.90;;;;;;5034703;28;96022;-72
2023/01/19 03:16:35;;;;;;;11.70;10.35;;;4.50;99.90;;;;;;5017984;28;96561;-72
2023/01/19 03:19:16;;;;;;;12.20;11.00;;;4.60;99.90;;;;;;5036238;28;92554;-72
2023/01/19 03:21:48;;;;;;;12.30;10.88;;;4.60;99.90;;;;;;5035503;28;91611;-72
2023/01/19 03:24:17;;;;;;;14.23;12.18;;;4.60;99.90;;;;;;5033367;27;95708;-72
2023/01/19 03:26:51;;;;;;;15.05;11.55;;;4.60;99.90;;;;;;5035805;28;93518;-72
2023/01/19 03:29:21;;;;;;;14.35;12.20;;;4.60;99.90;;;;;;5033720;28;94825;-72
2023/01/19 03:31:50;;;;;;;14.00;11.02;;;4.60;99.90;;;;;;5034748;28;92567;-72
2023/01/19 03:34:22;;;;;;;12.25;10.32;;;4.60;99.90;;;;;;5035238;28;93650;-72
2023/01/19 03:36:53;;;;;;;14.43;11.10;;;4.60;99.90;;;;;;5017522;28;96046;-72
2023/01/19 03:39:25;;;;;;;9.32;8.38;;;4.60;99.90;;;;;;5034852;28;92491;-72
2023/01/19 03:41:57;;;;;;;15.55;12.45;;;4.50;99.90;;;;;;5036241;28;92417;-72
2023/01/19 03:44:27;;;;;;;15.52;12.40;;;4.50;99.90;;;;;;5034176;28;96050;-72
2023/01/19 03:46:55;;;;;;;15.07;12.48;;;4.50;99.90;;;;;;5034316;28;95402;-71
2023/01/19 03:49:22;;;;;;;15.23;12.82;;;4.50;99.90;;;;;;5035537;28;92822;-71
2023/01/19 03:51:49;;;;;;;13.43;11.60;;;4.50;99.90;;;;;;5034655;28;92436;-72
2023/01/19 03:54:16;;;;;;;13.63;11.50;;;4.50;99.90;;;;;;5016084;28;95519;-72
2023/01/19 03:56:43;;;;;;;15.25;12.43;;;4.50;99.90;;;;;;5034023;28;97066;-72
2023/01/19 03:59:10;;;;;;;13.35;11.38;;;4.50;99.90;;;;;;5035368;28;92357;-72
2023/01/19 04:01:37;;;;;;;13.20;11.77;;;4.50;99.90;;;;;;5017357;28;92513;-72
2023/01/19 04:04:04;;;;;;;13.57;11.48;;;4.50;99.90;;;;;;5033567;28;96031;-72
2023/01/19 04:06:31;;;;;;;14.40;11.75;;;4.50;99.90;;;;;;5033916;28;95466;-72
2023/01/19 04:08:58;;;;;;;12.82;11.50;;;4.50;99.90;;;;;;5033991;28;92417;-72
2023/01/19 04:11:25;;;;;;;13.05;11.30;;;4.50;99.90;;;;;;5035894;28;91750;-73
2023/01/19 04:13:52;;;;;;;11.73;10.52;;;4.50;99.90;;;;;;5017293;28;96005;-72
2023/01/19 04:16:20;;;;;;;12.02;10.82;;;4.50;99.90;;;;;;5017252;28;92980;-72
2023/01/19 04:18:47;;;;;;;12.23;10.95;;;4.50;99.90;;;;;;5032567;28;94883;-72
2023/01/19 04:21:15;;;;;;;11.48;10.27;;;4.50;99.90;;;;;;5033689;28;92493;-72
2023/01/19 04:23:43;;;;;;;11.25;10.05;;;4.50;99.90;;;;;;5017275;28;93052;-72
2023/01/19 04:26:10;;;;;;;11.05;9.95;;;4.50;99.90;;;;;;5033524;28;94499;-72
2023/01/19 04:28:37;;;;;;;9.77;8.88;;;4.50;99.90;;;;;;5018077;28;92540;-72
2023/01/19 04:31:05;;;;;;;10.18;9.05;;;4.50;99.90;;;;;;5034096;28;92453;-72
2023/01/19 04:33:33;;;;;;;10.30;8.82;;;4.50;99.90;;;;;;5035041;28;93393;-72
2023/01/19 04:36:00;;;;;;;9.25;8.35;;;4.50;99.90;;;;;;5022045;28;93121;-72
2023/01/19 04:38:27;;;;;;;9.85;8.95;;;4.50;99.90;;;;;;5024249;28;92433;-72
2023/01/19 04:40:54;;;;;;;9.82;8.15;;;4.50;99.90;;;;;;5042646;28;92905;-72
2023/01/19 04:43:22;;;;;;;9.07;8.18;;;4.50;99.90;;;;;;5040754;28;95681;-72
2023/01/19 04:45:50;;;;;;;9.82;8.93;;;4.60;99.90;;;;;;5040662;28;97926;-72
2023/01/19 04:48:17;;;;;;;8.95;8.05;;;4.50;99.90;;;;;;5040968;28;92571;-72
2023/01/19 04:50:45;;;;;;;9.85;8.68;;;4.50;99.90;;;;;;5041109;28;92340;-73
2023/01/19 04:53:12;;;;;;;9.32;8.40;;;4.50;99.90;;;;;;5040441;28;95867;-71
2023/01/19 04:55:40;;;;;;;9.25;8.35;;;4.50;99.90;;;;;;5023848;28;95718;-71
2023/01/19 04:58:07;;;;;;;10.35;9.15;;;4.50;99.90;;;;;;5041971;28;92422;-72
2023/01/19 05:00:34;;;;;;;11.02;8.88;;;4.50;99.90;;;;;;5042232;28;91783;-72
2023/01/19 05:03:02;;;;;;;10.10;8.60;;;4.50;99.90;;;;;;5040668;28;93411;-72
2023/01/19 05:05:29;;;;;;;9.98;8.98;;;4.40;99.90;;;;;;5041684;28;93283;-72
2023/01/19 05:07:56;;;;;;;9.57;8.57;;;4.40;99.90;;;;;;5040832;28;94793;-72
2023/01/19 05:10:24;;;;;;;10.73;9.50;;;4.40;99.90;;;;;;5024079;28;92895;-72
2023/01/19 05:12:50;;;;;;;11.10;9.77;;;4.30;99.90;;;;;;5023619;28;93171;-72
2023/01/19 05:15:18;;;;;;;10.05;8.68;;;4.30;99.90;;;;;;5041537;28;92961;-72
2023/01/19 05:17:45;;;;;;;10.95;8.68;;;4.30;99.90;;;;;;5041996;28;92513;-72
2023/01/19 05:20:12;;;;;;;10.57;9.32;;;4.30;99.90;;;;;;5041786;28;92834;-73
2023/01/19 05:22:47;;;;;;;10.35;9.25;;;4.40;99.90;;;;;;5040150;28;96221;-72
2023/01/19 05:25:14;;;;;;;10.40;8.90;;;4.40;99.90;;;;;;5040344;28;93068;-72
2023/01/19 05:27:41;;;;;;;10.98;9.23;;;4.40;99.90;;;;;;5041793;28;92337;-72
2023/01/19 05:30:10;;;;;;;12.05;9.13;;;4.40;99.90;;;;;;5041503;28;92475;-72
2023/01/19 05:32:37;;;;;;;10.02;8.48;;;4.40;99.90;;;;;;5039093;28;95786;-72
2023/01/19 05:35:04;;;;;;;10.23;9.10;;;4.40;99.90;;;;;;5041072;28;94427;-72
2023/01/19 05:37:31;;;;;;;10.25;9.15;;;4.40;99.90;;;;;;5007282;28;92438;-72
2023/01/19 05:39:58;;;;;;;9.55;8.32;;;4.40;99.90;;;;;;5023023;28;92484;-72
2023/01/19 05:42:25;;;;;;;9.48;8.23;;;4.40;99.90;;;;;;5040136;28;92468;-72
2023/01/19 05:44:52;;;;;;;8.98;8.07;;;4.30;99.90;;;;;;5041234;28;92870;-72
2023/01/19 05:47:19;;;;;;;9.05;7.60;;;4.40;99.90;;;;;;5038723;27;93239;-72
2023/01/19 05:49:46;;;;;;;9.10;7.45;;;4.30;99.90;;;;;;5037176;28;92235;-71
2023/01/19 05:52:13;;;;;;;9.57;7.50;;;4.30;99.90;;;;;;5036627;28;93393;-72
2023/01/19 05:54:40;;;;;;;8.80;6.65;;;4.30;99.90;;;;;;5036661;28;92641;-71
2023/01/19 05:57:07;;;;;;;8.52;6.70;;;4.30;99.90;;;;;;5035784;28;94904;-72
2023/01/19 05:59:34;;;;;;;10.02;7.00;;;4.30;99.90;;;;;;5036844;28;92449;-72
2023/01/19 06:02:01;;;;;;;7.85;6.78;;;4.30;99.90;;;;;;5036655;28;93312;-72
2023/01/19 06:04:28;;;;;;;8.30;5.93;;;4.20;99.90;;;;;;5035958;28;95526;-72
2023/01/19 06:06:55;;;;;;;8.23;5.82;;;4.20;99.90;;;;;;5037823;28;92484;-71
2023/01/19 06:09:22;;;;;;;6.80;5.40;;;4.20;99.90;;;;;;5036562;28;92421;-72
2023/01/19 06:11:50;;;;;;;7.78;5.55;;;4.20;99.90;;;;;;5037809;27;93229;-72
2023/01/19 06:14:16;;;;;;;7.65;5.32;;;4.20;99.90;;;;;;5037851;28;93015;-72
2023/01/19 06:16:43;;;;;;;6.55;5.78;;;4.20;99.90;;;;;;5019653;28;92569;-71
2023/01/19 06:19:10;;;;;;;8.20;4.63;;;4.10;99.90;;;;;;5037647;28;92522;-72
2023/01/19 06:21:37;;;;;;;6.65;4.18;;;4.10;99.90;;;;;;5034800;28;95580;-72
2023/01/19 06:24:05;;;;;;;6.45;4.07;;;4.10;99.90;;;;;;5037397;27;95444;-72
2023/01/19 06:26:32;;;;;;;5.30;3.50;;;4.20;99.90;;;;;;5036492;28;92960;-72
2023/01/19 06:28:59;;;;;;;6.97;4.20;;;4.20;99.90;;;;;;5037615;28;92454;-72
2023/01/19 06:31:26;;;;;;;5.80;3.85;;;4.20;99.90;;;;;;5019168;28;93088;-72
2023/01/19 06:33:53;;;;;;;6.03;3.25;;;4.20;99.90;;;;;;5036556;28;92987;-72
2023/01/19 06:36:20;;;;;;;7.88;3.30;;;4.20;99.90;;;;;;5035876;28;92956;-71
2023/01/19 06:38:47;;;;;;;3.60;2.03;;;4.20;99.90;;;;;;5003080;28;91791;-72
2023/01/19 06:41:14;;;;;;;5.63;2.20;;;4.20;99.90;;;;;;5035749;28;93307;-72
2023/01/19 06:43:41;;;;;;;2.90;1.95;;;4.20;99.90;;;;;;5036048;28;93237;-72
2023/01/19 06:46:08;;;;;;;5.53;3.22;;;4.30;99.90;;;;;;5034653;28;94919;-72
2023/01/19 06:48:35;;;;;;;6.30;2.90;;;4.30;99.90;;;;;;5019467;28;92859;-72
2023/01/19 06:51:02;;;;;;;3.80;1.70;;;4.30;99.90;;;;;;5036894;28;92894;-72
2023/01/19 06:53:29;;;;;;;4.60;1.75;;;4.30;99.90;;;;;;5037044;28;92904;-73
2023/01/19 06:56:00;;;;;;;4.55;2.95;;;4.30;99.90;;;;;;5037363;27;92448;-72
2023/01/19 06:58:28;;;;;;;3.13;1.20;;;4.40;99.90;;;;;;5036042;27;92900;-73
2023/01/19 07:00:59;;;;;;;5.38;1.50;;;4.40;99.90;;;;;;5036743;28;93185;-72
2023/01/19 07:03:26;;;;;;;5.43;2.60;;;4.40;99.90;;;;;;5036562;28;94724;-71
2023/01/19 07:05:53;;;;;;;3.85;2.45;;;4.50;99.90;;;;;;5036994;28;92416;-72
2023/01/19 07:08:20;;;;;;;4.85;1.83;;;4.50;99.90;;;;;;5035410;28;92986;-72
2023/01/19 07:10:47;;;;;;;3.05;1.48;;;4.50;99.90;;;;;;5035404;28;98198;-73
2023/01/19 07:13:36;;;;;;;7.53;1.50;;;4.60;99.90;;;;;;5035485;28;95470;-72
2023/01/19 07:16:12;;;;;;;3.45;1.35;;;4.60;99.90;;;;;;5036008;28;93181;-73
2023/01/19 07:18:40;;;;;;;8.40;2.15;;;4.60;99.90;;;;;;5035448;28;92549;-73
2023/01/19 07:21:07;;;;;;;5.10;1.63;;;4.60;99.90;;;;;;5034768;28;105710;-72
2023/01/19 07:23:34;;;;;;;6.90;2.63;;;4.60;99.90;;;;;;5036423;28;93029;-73
2023/01/19 07:26:01;;;;;;;3.10;1.63;;;4.60;99.90;;;;;;5036692;28;92801;-73
2023/01/19 07:28:29;;;;;;;3.08;1.40;;;4.50;99.90;;;;;;5036877;28;91854;-73
2023/01/19 07:30:57;;;;;;;2.25;1.30;;;4.50;99.90;;;;;;5035208;28;93242;-73
2023/01/19 07:33:25;;;;;;;3.75;1.30;;;4.40;99.90;;;;;;5034767;28;95777;-73
2023/01/19 07:35:53;;;;;;;2.90;1.10;;;4.50;99.90;;;;;;5032862;27;94926;-72
2023/01/19 07:38:20;;;;;;;3.72;2.03;;;4.40;99.90;;;;;;5036718;28;93006;-72
2023/01/19 07:40:47;;;;;;;5.90;1.90;;;4.40;99.90;;;;;;5036283;28;93154;-72
2023/01/19 07:43:15;;;;;;;3.10;1.38;;;4.40;99.90;;;;;;5018148;28;95906;-72
2023/01/19 07:45:42;;;;;;;5.70;1.83;;;4.40;99.90;;;;;;5034588;28;92519;-72
2023/01/19 07:48:09;;;;;;;5.75;1.60;;;4.40;99.90;;;;;;5034868;28;92584;-72
2023/01/19 07:50:36;;;;;;;5.30;1.77;;;4.40;99.90;;;;;;5034899;28;93779;-72
2023/01/19 07:53:07;;;;;;;8.52;2.35;;;4.40;99.90;;;;;;5036703;27;93154;-72
2023/01/19 07:55:34;;;;;;;7.85;1.90;;;4.40;99.90;;;;;;5034945;28;92544;-72
2023/01/19 07:58:05;;;;;;;9.68;2.45;;;4.40;99.90;;;;;;5036253;28;92467;-72
2023/01/19 08:00:34;;;;;;;8.10;2.50;;;4.40;99.90;;;;;;5016522;28;98186;-72
2023/01/19 08:03:02;;;;;;;7.88;1.90;;;4.40;99.90;;;;;;5036099;28;95399;-72
2023/01/19 08:05:31;;;;;;;5.00;1.92;;;4.40;99.90;;;;;;5035756;28;92491;-73
2023/01/19 08:07:59;;;;;;;10.82;2.42;;;4.40;99.90;;;;;;5035916;28;92450;-72
2023/01/19 08:10:27;;;;;;;4.57;1.52;;;4.40;99.90;;;;;;5035032;27;93359;-73
2023/01/19 08:12:55;;;;;;;7.80;1.75;;;4.40;99.90;;;;;;5035850;28;93123;-73
2023/01/19 08:15:23;;;;;;;9.18;1.58;;;4.40;99.90;;;;;;5034743;28;92413;-72
2023/01/19 08:18:04;;;;;;;6.47;1.85;;;4.30;99.90;;;;;;5034546;28;91793;-73
2023/01/19 08:20:31;;;;;;;6.03;1.55;;;4.40;99.90;;;;;;5034241;28;93563;-73
2023/01/19 08:22:58;;;;;;;3.85;1.10;;;4.30;99.90;;;;;;5035639;28;92681;-73
2023/01/19 08:25:33;;;;;;;6.97;1.70;;;4.40;99.90;;;;;;5033208;28;95032;-72
2023/01/19 08:28:01;;;;;;;6.80;1.45;;;4.40;99.90;;;;;;5034414;28;92624;-72
2023/01/19 08:30:29;;;;;;;6.30;1.20;;;4.50;99.90;;;;;;5034165;28;92572;-72
2023/01/19 08:33:02;;;;;;;10.45;3.55;;;4.50;99.90;;;;;;5034006;28;95632;-72
2023/01/19 08:35:31;;;;;;;6.40;1.40;;;4.60;99.90;;;;;;5033639;28;92491;-72
2023/01/19 08:38:00;;;;;;;4.53;1.40;;;4.70;99.90;;;;;;5035730;27;92512;-72
2023/01/19 08:40:35;;;;;;;7.13;1.27;;;4.80;99.90;;;;;;5035240;28;93567;-72
2023/01/19 08:43:06;;;;;;;5.22;1.27;;;4.90;99.90;;;;;;5034235;28;93937;-72
2023/01/19 08:45:46;;;;;;;10.30;1.52;;;4.90;99.90;;;;;;5035149;28;92438;-72
2023/01/19 08:48:16;;;;;;;11.80;2.38;;;5.10;99.90;;;;;;5035615;28;92450;-72
2023/01/19 08:50:46;;;;;;;9.70;1.65;;;5.10;99.90;;;;;;5033917;28;95628;-72
2023/01/19 08:53:13;;;;;;;8.73;1.55;;;5.20;99.90;;;;;;5035324;28;95861;-73
2023/01/19 08:55:40;;;;;;;8.13;1.63;;;5.20;99.90;;;;;;5033928;28;92377;-72
2023/01/19 08:58:08;;;;;;;6.85;1.48;;;5.30;99.90;;;;;;5034049;28;92453;-72
2023/01/19 09:00:37;;;;;;;6.43;1.55;;;5.40;99.90;;;;;;5033517;28;95775;-73
2023/01/19 09:03:10;;;;;;;8.23;2.08;;;5.40;99.90;;;;;;5033681;28;95645;-73
2023/01/19 09:05:37;;;;;;;12.15;1.88;;;5.50;99.90;;;;;;5033641;28;92512;-73
2023/01/19 09:08:12;;;;;;;8.13;2.00;;;5.50;99.90;;;;;;5034386;28;91735;-73
2023/01/19 09:10:48;;;;;;;12.90;2.58;;;5.60;99.90;;;;;;5035205;28;93077;-73
2023/01/19 09:13:16;;;;;;;10.68;1.55;;;5.60;99.90;;;;;;5033841;28;95494;-73
2023/01/19 09:15:43;;;;;;;9.20;1.67;;;5.70;99.90;;;;;;5032606;28;94894;-73
2023/01/19 09:18:13;;;;;;;10.30;2.30;;;5.80;99.90;;;;;;5035041;28;92443;-73
2023/01/19 09:20:44;;;;;;;8.32;2.00;;;5.80;99.90;;;;;;5034478;28;94152;-73
2023/01/19 09:23:14;;;;;;;10.50;2.05;;;5.90;99.90;;;;;;5036178;27;92946;-73
2023/01/19 09:25:44;;;;;;;9.73;2.10;;;5.90;99.90;;;;;;5038149;28;92362;-72
2023/01/19 09:28:13;;;;;;;11.45;3.13;;;5.90;99.90;;;;;;5036728;28;92512;-72
2023/01/19 09:30:41;;;;;;;11.40;2.08;;;5.90;99.90;;;;;;5036913;28;93251;-72
2023/01/19 09:33:11;;;;;;;8.00;2.10;;;5.90;99.90;;;;;;5038479;28;97113;-72
2023/01/19 09:35:39;;;;;;;12.15;1.98;;;6.00;99.90;;;;;;5036819;28;92520;-72
2023/01/19 09:38:08;;;;;;;11.52;1.88;;;6.00;99.90;;;;;;5038258;28;92349;-72
2023/01/19 09:40:56;;;;;;;6.90;2.00;;;6.10;99.90;;;;;;5036821;28;95702;-73
2023/01/19 09:43:47;;;;;;;10.35;2.15;;;6.10;99.90;;;;;;5038205;27;95446;-73
2023/01/19 09:46:21;;;;;;;8.98;1.70;;;6.20;99.90;;;;;;5038527;28;92593;-72
2023/01/19 09:48:53;;;;;;;12.73;2.05;;;6.20;99.90;;;;;;5037298;28;92413;-72
2023/01/19 09:51:26;;;;;;;14.35;2.50;;;6.20;99.90;;;;;;5036743;28;93238;-72
2023/01/19 09:54:10;;;;;;;9.60;2.35;;;6.30;99.90;;;;;;5036713;28;93120;-72
2023/01/19 09:56:38;;;;;;;11.45;2.40;;;6.30;99.90;;;;;;5020131;28;92534;-72
2023/01/19 09:59:32;;;;;;;6.65;1.90;;;6.30;99.90;;;;;;5038241;28;91793;-72
2023/01/19 10:02:20;;;;;;;9.82;1.80;;;6.30;99.90;;;;;;5036415;28;93472;-72
2023/01/19 10:05:12;;;;;;;9.10;2.10;;;6.30;99.90;;;;;;5036054;28;95805;-72
2023/01/19 10:08:02;;;;;;;10.70;2.08;;;6.20;99.90;;;;;;5036987;28;94889;-72
2023/01/19 10:10:34;;;;;;;18.67;1.88;;;6.10;99.90;;;;;;5038161;27;92387;-72
2023/01/19 10:13:21;;;;;;;13.40;2.42;;;6.10;99.90;;;;;;5037059;28;93330;-72
2023/01/19 10:16:16;;;;;;;10.63;2.10;;;6.00;99.90;;;;;;5035968;28;95496;-72
2023/01/19 10:18:50;;;;;;;9.50;2.58;;;6.00;99.90;;;;;;5014182;28;92511;-72
2023/01/19 10:21:20;;;;;;;10.63;2.50;;;5.90;99.90;;;;;;5036139;28;92436;-72
2023/01/19 10:23:54;;;;;;;8.32;2.05;;;5.90;99.90;;;;;;5037386;28;93238;-73
2023/01/19 10:26:32;;;;;;;12.30;2.22;;;5.90;99.90;;;;;;5037881;28;91810;-72
2023/01/19 10:29:17;;;;;;;13.30;2.20;;;5.90;99.90;;;;;;5037540;28;92500;-72
2023/01/19 10:31:45;;;;;;;13.80;2.92;;;6.00;99.90;;;;;;5037422;28;93067;-72
2023/01/19 10:34:17;;;;;;;11.77;2.50;;;6.10;99.90;;;;;;5035150;27;95680;-72
2023/01/19 10:36:54;;;;;;;7.28;1.92;;;6.20;99.90;;;;;;5036091;28;95440;-72
2023/01/19 10:39:21;;;;;;;10.60;2.30;;;6.30;99.90;;;;;;5036218;28;93066;-72
2023/01/19 10:41:51;;;;;;;12.68;2.53;;;6.30;99.90;;;;;;5035880;28;95339;-72
2023/01/19 10:44:27;;;;;;;7.47;1.95;;;6.40;99.90;;;;;;5035667;28;96576;-72
2023/01/19 10:46:57;;;;;;;14.18;2.60;;;6.50;99.90;;;;;;5037013;27;93076;-72
2023/01/19 10:49:36;;;;;;;13.98;2.05;;;6.50;99.90;;;;;;5036281;28;92391;-72
2023/01/19 10:52:06;;;;;;;9.57;1.77;;;6.50;99.90;;;;;;5037461;28;91793;-72
2023/01/19 10:54:35;;;;;;;8.30;1.73;;;6.60;99.90;;;;;;5036776;28;93245;-72
2023/01/19 10:57:06;;;;;;;7.72;1.70;;;6.60;99.90;;;;;;5035468;28;92576;-72
2023/01/19 10:59:49;;;;;;;10.32;1.70;;;6.70;99.90;;;;;;5017980;28;94880;-72
2023/01/19 11:02:27;;;;;;;9.45;1.70;;;6.70;99.90;;;;;;5035620;28;92444;-72
2023/01/19 11:05:00;;;;;;;5.95;1.50;;;6.70;99.90;;;;;;5018817;28;95933;-72
2023/01/19 11:07:32;;;;;;;6.43;1.50;;;6.80;99.90;;;;;;5036874;28;92831;-72
2023/01/19 11:10:14;;;;;;;7.75;1.80;;;6.80;99.90;;;;;;5036849;28;92456;-72
2023/01/19 11:12:56;;;;;;;9.85;2.15;;;6.90;99.90;;;;;;5036923;28;92471;-72
2023/01/19 11:15:31;;;;;;;8.38;1.50;;;6.90;99.90;;;;;;5035478;28;93076;-72
2023/01/19 11:18:00;;;;;;;8.55;1.73;;;7.00;99.90;;;;;;5035511;28;94698;-73
2023/01/19 11:20:47;;;;;;;12.32;2.33;;;7.00;99.90;;;;;;5035637;28;92590;-72
2023/01/19 11:23:14;;;;;;;10.73;1.75;;;7.10;99.90;;;;;;5036905;28;92435;-72
2023/01/19 11:25:47;;;;;;;8.25;1.70;;;7.10;99.90;;;;;;5016803;28;98191;-73
2023/01/19 11:28:19;;;;;;;7.47;2.22;;;7.10;99.90;;;;;;5036339;28;95599;-72
2023/01/19 11:31:13;;;;;;;5.90;1.70;;;7.10;99.90;;;;;;5035588;28;92556;-73
2023/01/19 11:33:50;;;;;;;6.85;1.50;;;7.20;99.90;;;;;;5036536;27;92410;-73
2023/01/19 11:36:19;;;;;;;9.75;2.35;;;7.20;99.90;;;;;;5035944;28;93492;-73
2023/01/19 11:38:49;;;;;;;12.18;1.65;;;7.20;99.90;;;;;;5034929;28;93093;-73
2023/01/19 11:41:20;;;;;;;12.25;2.40;;;7.30;99.90;;;;;;5036363;27;92652;-73
2023/01/19 11:44:07;;;;;;;7.43;1.75;;;7.30;99.90;;;;;;5037090;28;91623;-73
2023/01/19 11:46:38;;;;;;;8.07;1.80;;;7.40;99.90;;;;;;5035286;28;93651;-73
2023/01/19 11:49:21;;;;;;;6.28;1.35;;;7.40;99.90;;;;;;5034631;28;95324;-73
2023/01/19 11:52:06;;;;;;;9.57;1.95;;;7.40;99.90;;;;;;5035569;28;95708;-73
2023/01/19 11:54:38;;;;;;;8.80;1.38;;;7.50;99.90;;;;;;5035118;28;92487;-73
2023/01/19 11:57:12;;;;;;;6.13;1.60;;;7.50;99.90;;;;;;5034375;28;95475;-73
2023/01/19 11:59:39;;;;;;;9.50;1.70;;;7.40;99.90;;;;;;5036134;28;92974;-73
2023/01/19 12:02:39;;;;;;;4.90;1.08;;;7.50;99.90;;;;;;5018260;28;92495;-73
2023/01/19 12:05:12;;;;;;;7.20;1.58;;;7.50;99.90;;;;;;5031586;28;92603;-73
2023/01/19 12:07:42;;;;;;;11.45;1.67;;;7.50;99.90;;;;;;5035013;28;93201;-72
2023/01/19 12:10:27;;;;;;;6.68;1.77;;;7.60;99.90;;;;;;5034816;28;92751;-72
2023/01/19 12:12:55;;;;;;;6.75;1.50;;;7.60;99.90;;;;;;5036200;28;92329;-72
2023/01/19 12:15:37;;;;;;;7.00;1.38;;;7.50;99.90;;;;;;5034354;28;92582;-72
2023/01/19 12:18:09;;;;;;;7.50;1.23;;;7.50;99.90;;;;;;5032964;28;98633;-73
2023/01/19 12:20:38;;;;;;;5.22;1.23;;;7.60;99.90;;;;;;5035722;28;95379;-73
2023/01/19 12:23:24;;;;;;;6.82;1.80;;;7.60;99.90;;;;;;5017724;28;93107;-73
2023/01/19 12:26:22;;;;;;;8.85;1.50;;;7.80;99.90;;;;;;5034404;28;94183;-73
2023/01/19 12:28:51;;;;;;;6.18;1.20;;;7.80;99.90;;;;;;5035804;28;93681;-73
2023/01/19 12:31:20;;;;;;;4.82;1.23;;;7.80;99.90;;;;;;5017542;28;95517;-73
2023/01/19 12:33:48;;;;;;;8.68;2.25;;;7.80;99.90;;;;;;5017460;28;92649;-75
2023/01/19 12:36:34;;;;;;;8.10;2.03;;;7.80;99.90;;;;;;5035212;28;91801;-74
2023/01/19 12:39:03;;;;;;;7.78;1.50;;;7.80;99.90;;;;;;5034095;28;93322;-74
2023/01/19 12:41:38;;;;;;;4.38;1.05;;;7.80;99.90;;;;;;5034057;28;95523;-74
2023/01/19 12:44:18;;;;;;;6.20;1.88;;;7.80;99.90;;;;;;5034567;28;95503;-73
2023/01/19 12:46:56;;;;;;;7.88;2.45;;;7.80;99.90;;;;;;5034421;28;92532;-74
2023/01/19 12:49:40;;;;;;;8.02;1.88;;;7.80;99.90;;;;;;5035246;28;93176;-74
2023/01/19 12:52:29;;;;;;;3.08;1.10;;;7.90;99.90;;;;;;5035299;28;93361;-74
2023/01/19 12:55:07;;;;;;;6.03;1.40;;;7.90;99.90;;;;;;5035866;27;93153;-73
2023/01/19 12:57:40;;;;;;;3.30;1.15;;;7.90;99.90;;;;;;5020107;28;92536;-73
2023/01/19 13:00:31;;;;;;;8.45;1.95;;;7.90;99.90;;;;;;5038562;27;93269;-73
2023/01/19 13:03:16;;;;;;;6.43;1.63;;;8.00;99.90;;;;;;5038166;28;93079;-73
2023/01/19 13:05:43;;;;;;;6.38;1.70;;;8.00;99.90;;;;;;5037771;28;92347;-73
2023/01/19 13:08:12;;;;;;;5.40;1.55;;;7.90;99.90;;;;;;5038738;28;92435;-73
2023/01/19 13:10:58;;;;;;;13.00;2.38;;;8.00;99.90;;;;;;5036057;28;95705;-72
2023/01/19 13:13:29;;;;;;;8.48;2.33;;;8.10;99.90;;;;;;5037335;28;95600;-73
2023/01/19 13:16:18;;;;;;;5.80;1.52;;;8.20;99.90;;;;;;5037476;28;92582;-72
2023/01/19 13:18:47;;;;;;;6.35;1.40;;;8.20;99.90;;;;;;5037244;28;92430;-73
2023/01/19 13:21:39;;;;;;;7.03;1.92;;;8.10;99.90;;;;;;5038178;28;93031;-72
2023/01/19 13:24:15;;;;;;;3.78;1.30;;;8.20;99.90;;;;;;5037293;28;92994;-74